ěÝzenÝ letovÚho provozu ╚eskÚ republiky
Letiste: LKKB Aktualizace: 26.09.2022 15:59:32  UTC
 METAR LKKB 26.09. 16:00 ...
METAR LKKB 261600Z 21006KT 180V250 9999 FEW044 15/06 Q1004 NOSIG RMK BLU BLU=
 TAF LKKB 26.09. 11:00 ...
TAF LKKB 261100Z 2612/2712 25006KT 9999 BKN040      TEMPO 2612/2616 25014KT 6000 SHRA SCT020TCU BKN035      BECMG 2615/2617 19008KT CAVOK      BECMG 2700/2702 BKN030      TEMPO 2700/2712 7000 RA SCT015 BKN025=